createdAt,value
2016-09-12T00:00:42.822Z,0
2016-09-12T00:01:42.836Z,0
2016-09-12T00:02:43.211Z,0
2016-09-12T00:03:43.160Z,0
2016-09-12T00:04:42.678Z,0
2016-09-12T00:05:43.534Z,0
2016-09-12T00:06:42.693Z,0
2016-09-12T00:07:42.695Z,0
2016-09-12T00:08:42.665Z,0
2016-09-12T00:09:43.189Z,0
2016-09-12T00:10:43.541Z,0
2016-09-12T00:11:42.666Z,0
2016-09-12T00:12:43.064Z,0
2016-09-12T00:13:43.212Z,0
2016-09-12T00:14:42.820Z,0
2016-09-12T00:15:43.135Z,0
2016-09-12T00:16:43.252Z,0
2016-09-12T00:17:42.653Z,0
2016-09-12T00:18:42.693Z,0
2016-09-12T00:19:42.644Z,0
2016-09-12T00:20:42.623Z,0
2016-09-12T00:21:42.804Z,0
2016-09-12T00:22:42.656Z,0
2016-09-12T00:23:42.668Z,0
2016-09-12T00:24:42.613Z,0
2016-09-12T00:25:42.651Z,0
2016-09-12T00:26:43.181Z,0
2016-09-12T00:27:42.599Z,0
2016-09-12T00:28:42.810Z,0
2016-09-12T00:29:42.648Z,0
2016-09-12T00:30:42.637Z,0
2016-09-12T00:31:42.593Z,0
2016-09-12T00:32:43.148Z,0
2016-09-12T00:33:42.594Z,0
2016-09-12T00:34:43.219Z,0
2016-09-12T00:35:42.598Z,0
2016-09-12T00:36:43.041Z,0
2016-09-12T00:37:42.573Z,0
2016-09-12T00:38:42.596Z,0
2016-09-12T00:39:42.590Z,0
2016-09-12T00:40:42.642Z,0
2016-09-12T00:41:42.562Z,0
2016-09-12T00:42:42.996Z,0
2016-09-12T00:43:42.589Z,0
2016-09-12T00:44:42.559Z,0
2016-09-12T00:45:43.160Z,0
2016-09-12T00:46:42.544Z,0
2016-09-12T00:47:42.561Z,0
2016-09-12T00:48:42.597Z,0
2016-09-12T00:49:42.546Z,0
2016-09-12T00:50:42.523Z,0
2016-09-12T00:51:42.825Z,0
2016-09-12T00:52:42.530Z,0
2016-09-12T00:53:43.093Z,0
2016-09-12T00:54:42.521Z,0
2016-09-12T00:55:42.491Z,0
2016-09-12T00:56:42.492Z,0
2016-09-12T00:57:42.504Z,0
2016-09-12T00:58:42.971Z,0
2016-09-12T00:59:43.453Z,0
2016-09-12T01:00:42.526Z,0
2016-09-12T01:01:42.487Z,0
2016-09-12T01:02:42.480Z,0
2016-09-12T01:03:42.533Z,0
2016-09-12T01:04:42.470Z,0
2016-09-12T01:05:42.475Z,0
2016-09-12T01:06:42.944Z,0
2016-09-12T01:07:42.472Z,0
2016-09-12T01:08:42.473Z,0
2016-09-12T01:09:42.516Z,0
2016-09-12T01:10:42.458Z,0
2016-09-12T01:11:42.456Z,0
2016-09-12T01:12:42.467Z,0
2016-09-12T01:13:42.449Z,0
2016-09-12T01:14:42.574Z,0
2016-09-12T01:15:42.434Z,0
2016-09-12T01:16:42.506Z,0
2016-09-12T01:17:42.429Z,0
2016-09-12T01:18:42.484Z,0
2016-09-12T01:19:42.413Z,0
2016-09-12T01:20:42.444Z,0
2016-09-12T01:21:42.400Z,0
2016-09-12T01:22:42.934Z,0
2016-09-12T01:23:42.800Z,0
2016-09-12T01:24:42.423Z,0
2016-09-12T01:25:42.391Z,0
2016-09-12T01:26:42.385Z,0
2016-09-12T01:27:43.239Z,0
2016-09-12T01:28:42.384Z,0
2016-09-12T01:29:42.414Z,0
2016-09-12T01:30:42.380Z,0
2016-09-12T01:31:42.394Z,0
2016-09-12T01:32:42.444Z,0
2016-09-12T01:33:42.362Z,0
2016-09-12T01:34:42.358Z,0
2016-09-12T01:35:42.369Z,0
2016-09-12T01:36:42.655Z,0
2016-09-12T01:37:42.352Z,0
2016-09-12T01:38:42.660Z,0
2016-09-12T01:39:42.360Z,0
2016-09-12T01:40:42.335Z,0
2016-09-12T01:41:42.472Z,0
2016-09-12T01:42:42.323Z,0
2016-09-12T01:43:42.312Z,0
2016-09-12T01:44:42.323Z,0
2016-09-12T01:45:42.314Z,0
2016-09-12T01:46:42.306Z,0
2016-09-12T01:47:42.316Z,0
2016-09-12T01:48:42.646Z,0
2016-09-12T01:49:42.296Z,0
2016-09-12T01:50:42.318Z,0
2016-09-12T01:51:42.738Z,0
2016-09-12T01:52:43.394Z,0
2016-09-12T01:53:42.317Z,0
2016-09-12T01:54:42.433Z,0
2016-09-12T01:55:42.266Z,0
2016-09-12T01:56:42.596Z,0
2016-09-12T01:57:42.272Z,0
2016-09-12T01:58:42.282Z,0
2016-09-12T01:59:42.263Z,0
2016-09-12T02:00:42.735Z,0
2016-09-12T02:01:42.263Z,0
2016-09-12T02:02:42.265Z,0
2016-09-12T02:03:42.375Z,0
2016-09-12T02:04:42.268Z,0
2016-09-12T02:05:42.243Z,0
2016-09-12T02:06:42.232Z,0
2016-09-12T02:07:42.243Z,0
2016-09-12T02:08:42.367Z,0
2016-09-12T02:09:42.219Z,0
2016-09-12T02:10:42.337Z,0
2016-09-12T02:11:42.199Z,0
2016-09-12T02:12:42.211Z,0
2016-09-12T02:13:42.231Z,0
2016-09-12T02:14:42.213Z,0
2016-09-12T02:15:42.210Z,0
2016-09-12T02:16:42.538Z,0
2016-09-12T02:17:42.262Z,0
2016-09-12T02:18:42.567Z,0
2016-09-12T02:19:42.222Z,0
2016-09-12T02:20:42.182Z,0
2016-09-12T02:21:42.500Z,0
2016-09-12T02:22:42.218Z,0
2016-09-12T02:23:42.165Z,0
2016-09-12T02:24:42.176Z,0
2016-09-12T02:25:42.162Z,0
2016-09-12T02:26:42.622Z,0
2016-09-12T02:27:42.154Z,0
2016-09-12T02:28:42.159Z,0
2016-09-12T02:29:42.516Z,0
2016-09-12T02:30:42.142Z,0
2016-09-12T02:31:42.460Z,0
2016-09-12T02:32:42.147Z,0
2016-09-12T02:33:42.206Z,0
2016-09-12T02:34:42.127Z,0
2016-09-12T02:35:42.431Z,0
2016-09-12T02:36:42.464Z,0
2016-09-12T02:37:42.118Z,0
2016-09-12T02:38:42.124Z,0
2016-09-12T02:39:42.101Z,0
2016-09-12T02:40:42.121Z,0
2016-09-12T02:41:42.121Z,0
2016-09-12T02:42:42.102Z,0
2016-09-12T02:43:42.115Z,0
2016-09-12T02:44:42.482Z,0
2016-09-12T02:45:42.730Z,0
2016-09-12T02:46:42.072Z,0
2016-09-12T02:47:42.110Z,0
2016-09-12T02:48:42.181Z,0
2016-09-12T02:49:42.063Z,0
2016-09-12T02:50:42.412Z,0
2016-09-12T02:51:42.061Z,0
2016-09-12T02:52:42.856Z,0
2016-09-12T02:53:42.071Z,0
2016-09-12T02:54:42.038Z,0
2016-09-12T02:55:42.060Z,0
2016-09-12T02:56:42.045Z,0
2016-09-12T02:57:42.342Z,0
2016-09-12T02:58:42.023Z,0
2016-09-12T02:59:42.021Z,0
2016-09-12T03:00:42.027Z,0
2016-09-12T03:01:42.367Z,0
2016-09-12T03:02:42.017Z,0
2016-09-12T03:03:42.157Z,0
2016-09-12T03:04:42.366Z,0
2016-09-12T03:05:42.900Z,0
2016-09-12T03:06:42.014Z,0
2016-09-12T03:07:41.991Z,0
2016-09-12T03:08:42.012Z,0
2016-09-12T03:09:41.984Z,0
2016-09-12T03:10:42.312Z,0
2016-09-12T03:11:42.327Z,0
2016-09-12T03:12:42.301Z,0
2016-09-12T03:13:41.992Z,0
2016-09-12T03:14:41.981Z,0
2016-09-12T03:15:41.957Z,0
2016-09-12T03:16:42.996Z,0
2016-09-12T03:17:41.957Z,0
2016-09-12T03:18:41.953Z,0
2016-09-12T03:19:42.342Z,0
2016-09-12T03:20:41.954Z,0
2016-09-12T03:21:41.940Z,0
2016-09-12T03:22:41.950Z,0
2016-09-12T03:23:41.936Z,0
2016-09-12T03:24:41.932Z,0
2016-09-12T03:25:42.227Z,0
2016-09-12T03:26:41.922Z,0
2016-09-12T03:27:41.916Z,0
2016-09-12T03:28:42.331Z,0
2016-09-12T03:29:41.998Z,0
2016-09-12T03:30:42.259Z,0
2016-09-12T03:31:42.683Z,0
2016-09-12T03:32:41.891Z,0
2016-09-12T03:33:41.940Z,0
2016-09-12T03:34:41.963Z,0
2016-09-12T03:35:41.879Z,0
2016-09-12T03:36:41.875Z,0
2016-09-12T03:37:41.894Z,0
2016-09-12T03:38:41.942Z,0
2016-09-12T03:39:41.893Z,0
2016-09-12T03:40:41.862Z,0
2016-09-12T03:41:42.282Z,0
2016-09-12T03:42:41.971Z,0
2016-09-12T03:43:41.877Z,0
2016-09-12T03:44:41.891Z,0
2016-09-12T03:45:41.831Z,0
2016-09-12T03:46:42.534Z,0
2016-09-12T03:47:41.828Z,0
2016-09-12T03:48:41.824Z,0
2016-09-12T03:49:41.831Z,0
2016-09-12T03:50:41.824Z,0
2016-09-12T03:51:41.822Z,0
2016-09-12T03:52:42.133Z,0
2016-09-12T03:53:41.813Z,0
2016-09-12T03:54:41.807Z,0
2016-09-12T03:55:41.798Z,0
2016-09-12T03:56:41.806Z,0
2016-09-12T03:57:41.814Z,0
2016-09-12T03:58:41.795Z,0
2016-09-12T03:59:41.778Z,0
2016-09-12T04:00:41.782Z,0
2016-09-12T04:01:41.823Z,0
2016-09-12T04:02:41.796Z,0
2016-09-12T04:03:42.222Z,0
2016-09-12T04:04:42.110Z,0
2016-09-12T04:05:41.775Z,0
2016-09-12T04:06:41.745Z,0
2016-09-12T04:07:42.076Z,0
2016-09-12T04:08:41.745Z,0
2016-09-12T04:09:41.770Z,0
2016-09-12T04:10:42.085Z,0
2016-09-12T04:11:41.765Z,4
2016-09-12T04:12:42.067Z,0
2016-09-12T04:13:42.035Z,4
2016-09-12T04:14:41.741Z,4
2016-09-12T04:15:41.753Z,4
2016-09-12T04:16:41.712Z,4
2016-09-12T04:17:41.739Z,4
2016-09-12T04:18:41.706Z,4
2016-09-12T04:19:41.715Z,8
2016-09-12T04:20:41.697Z,8
2016-09-12T04:21:41.690Z,12
2016-09-12T04:22:41.736Z,12
2016-09-12T04:23:41.701Z,16
2016-09-12T04:24:41.717Z,20
2016-09-12T04:25:41.690Z,24
2016-09-12T04:26:41.712Z,24
2016-09-12T04:27:41.681Z,28
2016-09-12T04:28:41.696Z,36
2016-09-12T04:29:41.679Z,40
2016-09-12T04:30:41.657Z,48
2016-09-12T04:31:41.770Z,56
2016-09-12T04:32:41.686Z,64
2016-09-12T04:33:41.682Z,68
2016-09-12T04:34:41.659Z,80
2016-09-12T04:35:41.642Z,88
2016-09-12T04:36:41.632Z,100
2016-09-12T04:37:41.652Z,108
2016-09-12T04:38:41.649Z,120
2016-09-12T04:39:42.304Z,132
2016-09-12T04:40:41.627Z,144
2016-09-12T04:41:41.630Z,160
2016-09-12T04:42:41.634Z,172
2016-09-12T04:43:41.661Z,188
2016-09-12T04:44:41.597Z,208
2016-09-12T04:45:41.584Z,224
2016-09-12T04:46:42.015Z,240
2016-09-12T04:47:41.593Z,260
2016-09-12T04:48:41.587Z,284
2016-09-12T04:49:41.817Z,304
2016-09-12T04:50:41.582Z,328
2016-09-12T04:51:41.558Z,348
2016-09-12T04:52:41.577Z,372
2016-09-12T04:53:41.584Z,400
2016-09-12T04:54:41.958Z,424
2016-09-12T04:55:41.554Z,452
2016-09-12T04:56:41.612Z,480
2016-09-12T04:57:41.537Z,508
2016-09-12T04:58:41.862Z,536
2016-09-12T04:59:41.545Z,564
2016-09-12T05:00:41.545Z,596
2016-09-12T05:01:41.911Z,624
2016-09-12T05:02:41.530Z,652
2016-09-12T05:03:41.616Z,680
2016-09-12T05:04:41.516Z,708
2016-09-12T05:05:41.854Z,736
2016-09-12T05:06:41.841Z,768
2016-09-12T05:07:41.501Z,800
2016-09-12T05:08:41.493Z,832
2016-09-12T05:09:41.494Z,860
2016-09-12T05:10:41.498Z,888
2016-09-12T05:11:41.810Z,920
2016-09-12T05:12:41.514Z,944
2016-09-12T05:13:41.475Z,972
2016-09-12T05:14:41.579Z,996
2016-09-12T05:15:41.807Z,1020
2016-09-12T05:16:41.512Z,1044
2016-09-12T05:17:41.481Z,1064
2016-09-12T05:18:42.144Z,1084
2016-09-12T05:19:41.462Z,1100
2016-09-12T05:20:41.775Z,1120
2016-09-12T05:21:41.433Z,1136
2016-09-12T05:22:41.436Z,1144
2016-09-12T05:23:41.434Z,1140
2016-09-12T05:24:41.425Z,1116
2016-09-12T05:25:41.553Z,1096
2016-09-12T05:26:41.419Z,1080
2016-09-12T05:27:41.411Z,1088
2016-09-12T05:28:41.726Z,1100
2016-09-12T05:29:41.398Z,1120
2016-09-12T05:30:41.731Z,1152
2016-09-12T05:31:41.393Z,1188
2016-09-12T05:32:41.396Z,1220
2016-09-12T05:33:41.758Z,1256
2016-09-12T05:34:41.432Z,1288
2016-09-12T05:35:41.783Z,1308
2016-09-12T05:36:41.684Z,1336
2016-09-12T05:37:42.452Z,1372
2016-09-12T05:38:41.491Z,1404
2016-09-12T05:39:41.367Z,1436
2016-09-12T05:40:41.673Z,1496
2016-09-12T05:41:41.692Z,1568
2016-09-12T05:42:41.373Z,1648
2016-09-12T05:43:41.692Z,1732
2016-09-12T05:44:42.269Z,1808
2016-09-12T05:45:41.385Z,1868
2016-09-12T05:46:41.327Z,1912
2016-09-12T05:47:41.335Z,1956
2016-09-12T05:48:41.349Z,2000
2016-09-12T05:49:41.336Z,2044
2016-09-12T05:50:41.318Z,2072
2016-09-12T05:51:41.642Z,2096
2016-09-12T05:52:41.291Z,2116
2016-09-12T05:53:41.308Z,2156
2016-09-12T05:54:41.551Z,2196
2016-09-12T05:55:41.306Z,2220
2016-09-12T05:56:41.710Z,2240
2016-09-12T05:57:41.291Z,2252
2016-09-12T05:58:41.305Z,2276
2016-09-12T05:59:41.281Z,2304
2016-09-12T06:00:41.288Z,2316
2016-09-12T06:01:41.292Z,2340
2016-09-12T06:02:41.490Z,2364
2016-09-12T06:03:41.300Z,2380
2016-09-12T06:04:41.258Z,2400
2016-09-12T06:05:41.574Z,2416
2016-09-12T06:06:41.300Z,2424
2016-09-12T06:07:41.256Z,2448
2016-09-12T06:08:41.287Z,2468
2016-09-12T06:09:55.639Z,2496
2016-09-12T06:10:41.590Z,2512
2016-09-12T06:11:43.062Z,2532
2016-09-12T06:12:42.266Z,2548
2016-09-12T06:13:43.902Z,2564
2016-09-12T06:14:41.390Z,2580
2016-09-12T06:15:41.325Z,2592
2016-09-12T06:16:41.398Z,2608
2016-09-12T06:17:41.364Z,2616
2016-09-12T06:18:41.212Z,2632
2016-09-12T06:19:41.252Z,2672
2016-09-12T06:20:51.385Z,2688
2016-09-12T06:23:11.056Z,2720
2016-09-12T06:24:30.745Z,2736
2016-09-12T06:24:39.592Z,2736
2016-09-12T06:25:39.584Z,2744
2016-09-12T06:26:39.588Z,2740
2016-09-12T06:27:39.591Z,2776
2016-09-12T06:28:39.670Z,2800
2016-09-12T06:29:39.579Z,2824
2016-09-12T06:30:39.564Z,2832
2016-09-12T06:31:39.567Z,2852
2016-09-12T06:32:39.572Z,2868
2016-09-12T06:33:39.883Z,2848
2016-09-12T06:34:39.583Z,2832
2016-09-12T06:35:39.559Z,2776
2016-09-12T06:36:39.571Z,2732
2016-09-12T06:37:39.554Z,2708
2016-09-12T06:38:39.544Z,2712
2016-09-12T06:39:39.557Z,2792
2016-09-12T06:40:44.169Z,2864
2016-09-12T06:42:11.632Z,2920
2016-09-12T07:10:34.939Z,3088
2016-09-12T07:11:50.803Z,3076
2016-09-12T13:18:43.127Z,4200
2016-09-12T13:19:43.135Z,4036
2016-09-12T13:20:43.175Z,3952
2016-09-12T13:21:43.154Z,3880
2016-09-12T13:22:43.160Z,3768
2016-09-12T13:23:43.162Z,3708
2016-09-12T13:24:43.172Z,3596
2016-09-12T13:25:43.156Z,3548
2016-09-12T13:26:43.161Z,3448
2016-09-12T13:27:43.166Z,3428
2016-09-12T13:28:43.180Z,3588
2016-09-12T13:29:43.182Z,3724
2016-09-12T13:30:43.500Z,3716
2016-09-12T13:31:43.194Z,3660
2016-09-12T13:32:43.194Z,3348
2016-09-12T13:33:43.199Z,3144
2016-09-12T13:34:43.206Z,3092
2016-09-12T13:35:43.208Z,3072
2016-09-12T13:36:43.220Z,3096
2016-09-12T13:37:43.242Z,3184
2016-09-12T13:38:43.539Z,3204
2016-09-12T13:39:43.236Z,3176
2016-09-12T13:40:43.559Z,3212
2016-09-12T13:41:43.256Z,3316
2016-09-12T13:42:43.564Z,3632
2016-09-12T13:43:43.275Z,3744
2016-09-12T13:44:43.262Z,3796
2016-09-12T13:45:43.261Z,3836
2016-09-12T13:46:43.276Z,3816
2016-09-12T13:47:43.589Z,3868
2016-09-12T13:48:43.282Z,3872
2016-09-12T13:49:43.281Z,3740
2016-09-12T13:50:43.288Z,3688
2016-09-12T13:51:43.295Z,3760
2016-09-12T13:52:43.298Z,3544
2016-09-12T13:53:43.308Z,3364
2016-09-12T13:54:43.316Z,3332
2016-09-12T13:55:43.317Z,3360
2016-09-12T13:56:43.341Z,3376
2016-09-12T13:57:43.334Z,3640
2016-09-12T13:58:43.645Z,3744
2016-09-12T13:59:43.348Z,3860
2016-09-12T14:00:43.343Z,3892
2016-09-12T14:01:43.361Z,3912
2016-09-12T14:02:43.563Z,3740
2016-09-12T14:03:43.363Z,3668
2016-09-12T14:04:43.372Z,3680
2016-09-12T14:05:43.368Z,3732
2016-09-12T14:06:43.369Z,3932
2016-09-12T14:07:43.379Z,4080
2016-09-12T14:08:43.385Z,4048
2016-09-12T14:09:43.387Z,3868
2016-09-12T14:10:43.400Z,3748
2016-09-12T14:11:43.395Z,3760
2016-09-12T14:12:43.408Z,3668
2016-09-12T14:13:43.411Z,3672
2016-09-12T14:14:43.422Z,3744
2016-09-12T14:15:43.423Z,3772
2016-09-12T14:16:43.435Z,3760
2016-09-12T14:17:43.438Z,3752
2016-09-12T14:18:43.582Z,3780
2016-09-12T14:19:43.449Z,3788
2016-09-12T14:20:43.446Z,3756
2016-09-12T14:21:43.449Z,3756
2016-09-12T14:22:43.464Z,3764
2016-09-12T14:23:43.463Z,3676
2016-09-12T14:24:43.478Z,3624
2016-09-12T14:25:43.475Z,3572
2016-09-12T14:26:43.476Z,3444
2016-09-12T14:27:43.484Z,3292
2016-09-12T14:28:43.862Z,3160
2016-09-12T14:29:43.492Z,3264
2016-09-12T14:30:43.820Z,3256
2016-09-12T14:31:43.501Z,3192
2016-09-12T14:32:43.508Z,3124
2016-09-12T14:33:43.516Z,3100
2016-09-12T14:34:43.868Z,3048
2016-09-12T14:35:43.838Z,2980
2016-09-12T14:36:43.542Z,2948
2016-09-12T14:37:43.529Z,2964
2016-09-12T14:38:43.545Z,2960
2016-09-12T14:39:43.536Z,2960
2016-09-12T14:40:43.545Z,2952
2016-09-12T14:41:43.558Z,2984
2016-09-12T14:42:43.552Z,2980
2016-09-12T14:43:43.568Z,2956
2016-09-12T14:44:43.567Z,3000
2016-09-12T14:45:43.573Z,3036
2016-09-12T14:46:43.590Z,2956
2016-09-12T14:47:43.607Z,2916
2016-09-12T14:48:58.483Z,2832
2016-09-12T14:49:43.594Z,2820
2016-09-12T14:50:43.920Z,2812
2016-09-12T14:51:43.608Z,2796
2016-09-12T14:52:43.619Z,2776
2016-09-12T14:53:43.612Z,2816
2016-09-12T14:54:43.625Z,2848
2016-09-12T14:55:43.618Z,2904
2016-09-12T14:56:43.627Z,2928
2016-09-12T14:57:43.621Z,3008
2016-09-12T14:58:43.633Z,3116
2016-09-12T14:59:43.641Z,3188
2016-09-12T15:00:43.643Z,3244
2016-09-12T15:01:43.656Z,3324
2016-09-12T15:02:43.658Z,3344
2016-09-12T15:03:43.667Z,3336
2016-09-12T15:04:43.670Z,3264
2016-09-12T15:05:43.680Z,3192
2016-09-12T15:06:43.684Z,3224
2016-09-12T15:07:43.694Z,3348
2016-09-12T15:08:43.695Z,3360
2016-09-12T15:09:43.696Z,3468
2016-09-12T15:10:43.712Z,3464
2016-09-12T15:11:43.700Z,3308
2016-09-12T15:12:43.710Z,3176
2016-09-12T15:13:43.703Z,3096
2016-09-12T15:14:43.714Z,3004
2016-09-12T15:15:43.718Z,2976
2016-09-12T15:16:43.727Z,2960
2016-09-12T15:17:43.728Z,2924
2016-09-12T15:18:43.779Z,2904
2016-09-12T15:19:43.734Z,2972
2016-09-12T15:20:43.756Z,2996
2016-09-12T15:21:43.751Z,3016
2016-09-12T15:22:43.749Z,3176
2016-09-12T15:23:43.757Z,3204
2016-09-12T15:24:43.763Z,3148
2016-09-12T15:25:43.762Z,3124
2016-09-12T15:26:43.779Z,3028
2016-09-12T15:27:43.783Z,3028
2016-09-12T15:28:43.789Z,3120
2016-09-12T15:29:43.792Z,3160
2016-09-12T15:30:43.791Z,3164
2016-09-12T15:31:43.801Z,2944
2016-09-12T15:32:43.815Z,2808
2016-09-12T15:33:43.812Z,2748
2016-09-12T15:34:43.814Z,2772
2016-09-12T15:35:43.827Z,2792
2016-09-12T15:36:43.824Z,2776
2016-09-12T15:37:43.818Z,2784
2016-09-12T15:38:43.829Z,2768
2016-09-12T15:39:43.835Z,2760
2016-09-12T15:40:43.855Z,2724
2016-09-12T15:41:43.847Z,2676
2016-09-12T15:42:43.854Z,2664
2016-09-12T15:43:43.864Z,2624
2016-09-12T15:44:44.170Z,2512
2016-09-12T15:45:43.860Z,2400
2016-09-12T15:46:43.866Z,2308
2016-09-12T15:47:43.869Z,2252
2016-09-12T15:48:43.878Z,2232
2016-09-12T15:49:43.890Z,2204
2016-09-12T15:50:43.887Z,2168
2016-09-12T15:51:43.888Z,2132
2016-09-12T15:52:43.904Z,2108
2016-09-12T15:53:43.913Z,2100
2016-09-12T15:54:43.911Z,2096
2016-09-12T15:55:43.908Z,2084
2016-09-12T15:56:43.924Z,2056
2016-09-12T15:57:43.913Z,2040
2016-09-12T15:58:43.928Z,2024
2016-09-12T15:59:43.943Z,2012
2016-09-12T16:00:43.945Z,2000
2016-09-12T16:01:43.929Z,1992
2016-09-12T16:02:43.950Z,1976
2016-09-12T16:03:43.937Z,1960
2016-09-12T16:04:43.947Z,1940
2016-09-12T16:05:43.954Z,1908
2016-09-12T16:06:43.962Z,1896
2016-09-12T16:07:43.969Z,1884
2016-09-12T16:08:43.968Z,1888
2016-09-12T16:09:43.970Z,1888
2016-09-12T16:10:43.975Z,1872
2016-09-12T16:11:43.995Z,1852
2016-09-12T16:12:43.977Z,1840
2016-09-12T16:13:43.985Z,1832
2016-09-12T16:14:43.989Z,1820
2016-09-12T16:15:43.996Z,1808
2016-09-12T16:16:44.007Z,1796
2016-09-12T16:17:44.001Z,1780
2016-09-12T16:18:44.005Z,1764
2016-09-12T16:19:44.132Z,1748
2016-09-12T16:20:44.135Z,1732
2016-09-12T16:21:44.124Z,1716
2016-09-12T16:22:44.130Z,1692
2016-09-12T16:23:44.129Z,1672
2016-09-12T16:24:44.160Z,1656
2016-09-12T16:25:44.151Z,1636
2016-09-12T16:26:44.146Z,1624
2016-09-12T16:27:44.143Z,1608
2016-09-12T16:28:44.475Z,1592
2016-09-12T16:29:44.129Z,1568
2016-09-12T16:30:44.146Z,1552
2016-09-12T16:31:44.281Z,1532
2016-09-12T16:32:44.290Z,1512
2016-09-12T16:33:44.291Z,1492
2016-09-12T16:34:44.290Z,1464
2016-09-12T16:35:44.284Z,1440
2016-09-12T16:36:44.290Z,1416
2016-09-12T16:37:44.291Z,1388
2016-09-12T16:38:44.287Z,1360
2016-09-12T16:39:44.296Z,1336
2016-09-12T16:40:44.297Z,1308
2016-09-12T16:41:44.309Z,1280
2016-09-12T16:42:44.309Z,1252
2016-09-12T16:43:44.317Z,1224
2016-09-12T16:44:44.421Z,1192
2016-09-12T16:45:44.289Z,1164
2016-09-12T16:46:44.297Z,1136
2016-09-12T16:47:44.289Z,1112
2016-09-12T16:48:44.306Z,1088
2016-09-12T16:49:44.278Z,1064
2016-09-12T16:50:44.271Z,1040
2016-09-12T16:51:44.281Z,1016
2016-09-12T16:52:44.285Z,988
2016-09-12T16:53:44.606Z,964
2016-09-12T16:54:44.295Z,940
2016-09-12T16:55:44.279Z,916
2016-09-12T16:56:44.420Z,892
2016-09-12T16:57:44.423Z,868
2016-09-12T16:58:44.411Z,844
2016-09-12T16:59:44.419Z,824
2016-09-12T17:00:44.294Z,796
2016-09-12T17:01:44.430Z,772
2016-09-12T17:02:44.436Z,748
2016-09-12T17:03:44.299Z,720
2016-09-12T17:04:44.446Z,696
2016-09-12T17:05:44.434Z,668
2016-09-12T17:06:44.309Z,644
2016-09-12T17:07:44.329Z,616
2016-09-12T17:08:44.305Z,592
2016-09-12T17:09:44.406Z,568
2016-09-12T17:10:44.406Z,544
2016-09-12T17:11:44.402Z,520
2016-09-12T17:12:44.440Z,496
2016-09-12T17:13:44.431Z,472
2016-09-12T17:14:44.425Z,448
2016-09-12T17:15:44.438Z,428
2016-09-12T17:16:44.448Z,404
2016-09-12T17:17:44.486Z,384
2016-09-12T17:18:44.465Z,360
2016-09-12T17:19:44.468Z,340
2016-09-12T17:20:44.326Z,320
2016-09-12T17:21:44.661Z,300
2016-09-12T17:22:44.383Z,280
2016-09-12T17:23:44.392Z,264
2016-09-12T17:24:44.403Z,244
2016-09-12T17:25:44.408Z,228
2016-09-12T17:26:44.428Z,208
2016-09-12T17:27:44.432Z,192
2016-09-12T17:28:44.426Z,176
2016-09-12T17:29:44.443Z,164
2016-09-12T17:30:44.446Z,148
2016-09-12T17:31:44.456Z,136
2016-09-12T17:32:44.455Z,120
2016-09-12T17:33:44.476Z,108
2016-09-12T17:34:44.372Z,96
2016-09-12T17:35:44.369Z,88
2016-09-12T17:36:44.380Z,76
2016-09-12T17:37:44.389Z,68
2016-09-12T17:38:44.433Z,60
2016-09-12T17:39:44.416Z,56
2016-09-12T17:40:44.411Z,48
2016-09-12T17:41:44.704Z,44
2016-09-12T17:42:44.435Z,36
2016-09-12T17:43:44.454Z,32
2016-09-12T17:44:44.451Z,28
2016-09-12T17:45:44.462Z,24
2016-09-12T17:46:44.449Z,20
2016-09-12T17:47:44.358Z,16
2016-09-12T17:48:44.367Z,12
2016-09-12T17:49:44.396Z,12
2016-09-12T17:50:44.523Z,12
2016-09-12T17:51:44.387Z,8
2016-09-12T17:52:44.405Z,8
2016-09-12T17:53:44.416Z,8
2016-09-12T17:54:44.413Z,4
2016-09-12T17:55:44.433Z,4
2016-09-12T17:56:44.431Z,0
2016-09-12T17:57:44.433Z,4
2016-09-12T17:58:44.442Z,4
2016-09-12T17:59:44.351Z,0
2016-09-12T18:00:44.350Z,0
2016-09-12T18:01:44.414Z,0
2016-09-12T18:02:44.365Z,0
2016-09-12T18:03:44.416Z,0
2016-09-12T18:04:44.382Z,0
2016-09-12T18:05:44.392Z,0
2016-09-12T18:06:44.390Z,0
2016-09-12T18:07:44.404Z,0
2016-09-12T18:08:44.721Z,0
2016-09-12T18:09:44.416Z,0
2016-09-12T18:10:44.444Z,0
2016-09-12T18:11:44.406Z,0
2016-09-12T18:12:44.346Z,0
2016-09-12T18:13:44.345Z,0
2016-09-12T18:14:44.470Z,0
2016-09-12T18:15:44.351Z,0
2016-09-12T18:16:44.371Z,0
2016-09-12T18:17:44.379Z,0
2016-09-12T18:18:44.696Z,0
2016-09-12T18:19:44.397Z,0
2016-09-12T18:20:44.430Z,0
2016-09-12T18:21:44.399Z,0
2016-09-12T18:22:44.406Z,0
2016-09-12T18:23:44.424Z,0
2016-09-12T18:24:44.428Z,0
2016-09-12T18:25:44.399Z,0
2016-09-12T18:26:44.347Z,0
2016-09-12T18:27:44.342Z,0
2016-09-12T18:28:44.350Z,0
2016-09-12T18:29:44.384Z,0
2016-09-12T18:30:44.416Z,0
2016-09-12T18:31:44.487Z,0
2016-09-12T18:32:44.492Z,0
2016-09-12T18:33:44.473Z,0
2016-09-12T18:34:44.404Z,0
2016-09-12T18:35:44.439Z,0
2016-09-12T18:36:44.414Z,0
2016-09-12T18:37:44.390Z,0
2016-09-12T18:38:44.326Z,0
2016-09-12T18:39:44.350Z,0
2016-09-12T18:40:44.410Z,0
2016-09-12T18:41:44.340Z,0
2016-09-12T18:42:44.354Z,0
2016-09-12T18:43:44.361Z,0
2016-09-12T18:44:44.369Z,0
2016-09-12T18:45:44.371Z,0
2016-09-12T18:46:44.995Z,0
2016-09-12T18:47:44.702Z,0
2016-09-12T18:48:44.398Z,0
2016-09-12T18:49:44.409Z,0
2016-09-12T18:50:44.309Z,0
2016-09-12T18:51:44.314Z,0
2016-09-12T18:52:44.324Z,0
2016-09-12T18:53:44.335Z,0
2016-09-12T18:54:44.362Z,0
2016-09-12T18:55:44.394Z,0
2016-09-12T18:56:44.347Z,0
2016-09-12T18:57:44.354Z,0
2016-09-12T18:58:44.363Z,0
2016-09-12T18:59:44.327Z,0
2016-09-12T19:00:44.371Z,0
2016-09-12T19:01:44.417Z,0
2016-09-12T19:02:44.290Z,0
2016-09-12T19:03:44.347Z,0
2016-09-12T19:04:44.303Z,0
2016-09-12T19:05:44.312Z,0
2016-09-12T19:06:44.337Z,0
2016-09-12T19:07:44.335Z,0
2016-09-12T19:08:44.339Z,0
2016-09-12T19:09:44.353Z,0
2016-09-12T19:10:44.353Z,0
2016-09-12T19:11:44.362Z,0
2016-09-12T19:12:44.361Z,0
2016-09-12T19:13:44.379Z,0
2016-09-12T19:14:44.354Z,0
2016-09-12T19:15:44.282Z,0
2016-09-12T19:16:44.329Z,0
2016-09-12T19:17:44.620Z,0
2016-09-12T19:18:44.387Z,0
2016-09-12T19:19:44.307Z,0
2016-09-12T19:20:44.319Z,0
2016-09-12T19:21:44.463Z,0
2016-09-12T19:22:44.375Z,0
2016-09-12T19:23:44.407Z,0
2016-09-12T19:24:44.341Z,0
2016-09-12T19:25:44.362Z,0
2016-09-12T19:26:44.384Z,0
2016-09-12T19:27:44.355Z,0
2016-09-12T19:28:44.307Z,0
2016-09-12T19:29:44.281Z,0
2016-09-12T19:30:44.411Z,0
2016-09-12T19:31:44.302Z,0
2016-09-12T19:32:59.211Z,0
2016-09-12T19:33:44.313Z,0
2016-09-12T19:34:44.318Z,0
2016-09-12T19:35:45.631Z,0
2016-09-12T19:36:44.336Z,0
2016-09-12T19:37:44.773Z,0
2016-09-12T19:38:44.352Z,0
2016-09-12T19:39:48.560Z,0
2016-09-12T19:40:48.742Z,0
2016-09-12T19:41:48.884Z,0
2016-09-12T19:42:47.735Z,0
2016-09-12T19:43:52.666Z,0
2016-09-12T19:44:44.360Z,0
2016-09-12T19:45:45.106Z,0
2016-09-12T19:46:46.101Z,0
2016-09-12T19:47:45.166Z,0
2016-09-12T19:48:45.394Z,0
2016-09-12T19:49:45.339Z,0
2016-09-12T19:50:45.286Z,0
2016-09-12T19:51:44.363Z,0
2016-09-12T19:52:45.402Z,0
2016-09-12T19:53:46.507Z,0
2016-09-12T19:54:45.601Z,0
2016-09-12T19:55:44.297Z,0
2016-09-12T19:56:44.281Z,0
2016-09-12T19:57:44.423Z,0
2016-09-12T19:58:46.134Z,0
2016-09-12T19:59:47.555Z,0
2016-09-12T20:00:46.554Z,0
2016-09-12T20:01:44.957Z,0
2016-09-12T20:02:44.323Z,0
2016-09-12T20:03:44.638Z,0
2016-09-12T20:04:44.346Z,0
2016-09-12T20:05:45.038Z,0
2016-09-12T20:06:44.271Z,0
2016-09-12T20:07:44.249Z,0
2016-09-12T20:08:45.022Z,0
2016-09-12T20:09:44.404Z,0
2016-09-12T20:10:44.279Z,0
2016-09-12T20:11:44.942Z,0
2016-09-12T20:12:44.294Z,0
2016-09-12T20:13:44.302Z,0
2016-09-12T20:14:59.655Z,0
2016-09-12T20:15:44.305Z,0
2016-09-12T20:16:44.957Z,0
2016-09-12T20:17:44.193Z,0
2016-09-12T20:18:47.099Z,0
2016-09-12T20:19:48.376Z,0
2016-09-12T20:20:45.838Z,0
2016-09-12T20:21:45.416Z,0
2016-09-12T20:22:44.802Z,0
2016-09-12T20:23:44.275Z,0
2016-09-12T20:24:44.291Z,0
2016-09-12T20:25:44.290Z,0
2016-09-12T20:26:44.964Z,0
2016-09-12T20:27:44.298Z,0
2016-09-12T20:28:45.561Z,0
2016-09-12T20:29:44.182Z,0
2016-09-12T20:30:44.826Z,0
2016-09-12T20:31:44.220Z,0
2016-09-12T20:32:44.227Z,0
2016-09-12T20:33:45.001Z,0
2016-09-12T20:34:44.242Z,0
2016-09-12T20:35:45.887Z,0
2016-09-12T20:36:44.254Z,0
2016-09-12T20:37:44.263Z,0
2016-09-12T20:38:44.672Z,0
2016-09-12T20:39:44.143Z,0
2016-09-12T20:40:45.669Z,0
2016-09-12T20:41:44.241Z,0